Time;durP1;ratioP1;P1;durP2;ratioP2;P2;SDS_P1;SDS_P2;PMS_P1;PMS_P2;Temp;Humidity;BMP_temperature;BMP_pressure;BME280_temperature;BME280_humidity;BME280_pressure;Samples;Min_cycle;Max_cycle;Signal;HPM_P1;HPM_P2
2021/03/01 00:01:24;;;;;;;18.48;12.32;;;8.40;55.60;;;;;;5040101;28;20036;-67
2021/03/01 00:03:49;;;;;;;18.83;12.50;;;8.40;55.80;;;;;;5048162;28;20036;-64
2021/03/01 00:06:15;;;;;;;17.60;12.77;;;8.40;55.70;;;;;;5046884;28;20112;-65
2021/03/01 00:08:41;;;;;;;19.05;13.43;;;8.40;55.50;;;;;;5035282;28;20052;-65
2021/03/01 00:11:06;;;;;;;19.95;13.70;;;8.50;55.40;;;;;;5036714;28;20508;-64
2021/03/01 00:13:32;;;;;;;20.20;13.73;;;8.40;55.60;;;;;;5034414;28;20032;-66
2021/03/01 00:15:58;;;;;;;20.45;13.50;;;8.50;55.40;;;;;;5031451;28;20045;-63
2021/03/01 00:18:23;;;;;;;21.15;13.48;;;8.50;55.40;;;;;;5036914;28;20061;-65
2021/03/01 00:20:49;;;;;;;23.45;14.73;;;8.40;55.40;;;;;;5034954;28;20037;-66
2021/03/01 00:23:15;;;;;;;19.75;13.30;;;8.40;55.80;;;;;;5045578;28;20024;-64
2021/03/01 00:25:41;;;;;;;20.98;13.10;;;8.30;55.90;;;;;;5040239;28;20036;-65
2021/03/01 00:28:08;;;;;;;18.52;12.15;;;8.20;56.20;;;;;;5038809;28;20037;-64
2021/03/01 00:30:34;;;;;;;17.80;12.15;;;8.20;56.40;;;;;;5037528;28;20467;-66
2021/03/01 00:32:59;;;;;;;18.95;13.05;;;8.10;56.50;;;;;;5044617;28;20032;-66
2021/03/01 00:35:25;;;;;;;19.33;12.77;;;8.10;56.70;;;;;;5042666;28;20025;-66
2021/03/01 00:37:51;;;;;;;18.17;12.93;;;8.10;56.80;;;;;;5043046;28;20104;-65
2021/03/01 00:40:17;;;;;;;17.55;12.35;;;8.10;56.60;;;;;;5043233;28;20494;-66
2021/03/01 00:42:44;;;;;;;20.02;13.45;;;8.10;56.50;;;;;;5036716;28;20037;-62
2021/03/01 00:45:10;;;;;;;20.90;12.90;;;8.10;56.40;;;;;;5044964;28;20032;-65
2021/03/01 00:47:37;;;;;;;21.05;13.05;;;8.00;56.50;;;;;;5038374;28;20085;-64
2021/03/01 00:50:05;;;;;;;19.08;12.73;;;8.00;56.80;;;;;;5040301;28;20041;-64
2021/03/01 00:52:30;;;;;;;20.23;13.05;;;8.00;56.80;;;;;;5039077;28;20048;-67
2021/03/01 00:54:56;;;;;;;20.17;13.18;;;8.00;56.80;;;;;;5048386;28;20577;-66
2021/03/01 00:57:22;;;;;;;20.23;12.88;;;8.10;56.50;;;;;;5036476;28;20519;-66
2021/03/01 00:59:47;;;;;;;20.00;12.63;;;8.10;56.50;;;;;;5027881;28;20041;-66
2021/03/01 01:02:13;;;;;;;16.92;12.02;;;8.00;57.20;;;;;;5020746;28;20056;-65
2021/03/01 01:04:38;;;;;;;21.27;13.88;;;8.00;56.60;;;;;;5016821;28;20115;-62
2021/03/01 01:07:04;;;;;;;18.27;13.00;;;8.00;56.60;;;;;;5029415;28;20083;-67
2021/03/01 01:09:30;;;;;;;19.88;12.63;;;8.10;56.50;;;;;;5040336;28;20032;-67
2021/03/01 01:11:55;;;;;;;21.13;13.50;;;8.10;56.40;;;;;;5033597;28;20029;-66
2021/03/01 01:14:21;;;;;;;20.25;13.93;;;8.10;56.40;;;;;;5034407;28;20583;-65
2021/03/01 01:16:46;;;;;;;17.52;12.88;;;8.10;56.40;;;;;;5042361;28;20065;-66
2021/03/01 01:19:12;;;;;;;21.10;13.40;;;8.10;56.40;;;;;;5042352;28;20536;-67
2021/03/01 01:21:38;;;;;;;22.92;13.85;;;8.10;56.20;;;;;;5023627;28;20155;-64
2021/03/01 01:24:04;;;;;;;19.15;13.80;;;8.00;56.40;;;;;;5015130;28;20078;-65
2021/03/01 01:26:30;;;;;;;22.92;14.43;;;8.00;56.60;;;;;;5048059;28;20025;-64
2021/03/01 01:28:55;;;;;;;20.02;13.73;;;8.00;56.60;;;;;;5043629;28;20064;-66
2021/03/01 01:31:21;;;;;;;23.08;14.10;;;8.00;56.80;;;;;;5041895;28;20068;-66
2021/03/01 01:33:47;;;;;;;20.50;13.35;;;8.00;56.80;;;;;;5022348;28;20818;-65
2021/03/01 01:36:13;;;;;;;22.00;14.88;;;7.90;57.00;;;;;;5047246;28;20462;-66
2021/03/01 01:38:57;;;;;;;21.48;14.15;;;7.90;57.00;;;;;;5019803;28;20075;-65
2021/03/01 01:41:22;;;;;;;22.60;15.15;;;8.00;56.90;;;;;;5041521;28;20544;-65
2021/03/01 01:43:48;;;;;;;19.92;12.65;;;7.90;57.10;;;;;;5044688;28;20045;-65
2021/03/01 01:46:14;;;;;;;19.58;12.55;;;7.80;57.20;;;;;;5040376;28;20037;-65
2021/03/01 01:48:40;;;;;;;20.30;14.13;;;7.90;57.10;;;;;;5019181;28;20044;-63
2021/03/01 01:51:06;;;;;;;26.02;13.73;;;7.90;56.90;;;;;;5020243;28;20033;-67
2021/03/01 01:53:32;;;;;;;19.80;13.25;;;7.90;57.20;;;;;;5022206;28;20440;-66
2021/03/01 01:55:59;;;;;;;18.10;12.82;;;7.90;57.10;;;;;;5022087;28;20033;-64
2021/03/01 01:58:25;;;;;;;18.80;12.63;;;7.90;57.10;;;;;;5049406;28;20094;-64
2021/03/01 02:00:51;;;;;;;20.15;13.95;;;7.90;57.30;;;;;;5050006;28;20432;-65
2021/03/01 02:03:43;;;;;;;22.70;14.75;;;7.80;57.30;;;;;;5037785;28;20510;-65
2021/03/01 02:06:18;;;;;;;22.17;13.82;;;7.80;57.30;;;;;;5015718;28;20074;-67
2021/03/01 02:09:05;;;;;;;20.85;14.43;;;7.80;57.30;;;;;;5046609;28;20033;-65
2021/03/01 02:11:53;;;;;;;21.90;16.50;;;7.80;57.40;;;;;;5038677;28;20545;-65
2021/03/01 02:14:37;;;;;;;24.52;15.38;;;7.80;57.30;;;;;;5034363;28;20033;-64
2021/03/01 02:17:03;;;;;;;23.38;16.15;;;7.80;57.30;;;;;;5037313;28;20060;-66
2021/03/01 02:19:29;;;;;;;23.63;16.98;;;7.80;57.40;;;;;;5028784;28;20029;-67
2021/03/01 02:21:55;;;;;;;23.45;14.60;;;7.80;57.40;;;;;;5038201;28;20132;-66
2021/03/01 02:24:31;;;;;;;18.60;13.20;;;7.80;57.40;;;;;;5027333;28;20119;-65
2021/03/01 02:26:58;;;;;;;18.73;13.30;;;7.80;57.50;;;;;;5108244;22;20048;-62
2021/03/01 02:29:25;;;;;;;18.98;13.00;;;7.80;57.60;;;;;;5095025;28;20031;-62
2021/03/01 02:31:52;;;;;;;23.45;15.15;;;7.80;57.60;;;;;;5084060;28;20032;-62
2021/03/01 02:34:20;;;;;;;21.05;14.10;;;7.70;57.70;;;;;;5096817;28;20466;-61
2021/03/01 02:36:50;;;;;;;19.10;13.68;;;7.70;57.80;;;;;;5098459;28;20031;-62
2021/03/01 02:39:20;;;;;;;23.00;14.32;;;7.60;58.00;;;;;;5099491;28;20099;-62
2021/03/01 02:41:48;;;;;;;21.73;14.07;;;7.70;57.90;;;;;;5100158;28;20047;-62
2021/03/01 02:44:15;;;;;;;23.02;15.35;;;7.70;57.90;;;;;;5100424;28;20036;-71
2021/03/01 02:46:41;;;;;;;25.08;15.43;;;7.70;58.00;;;;;;5103870;28;20090;-62
2021/03/01 02:49:08;;;;;;;24.75;16.45;;;7.70;57.70;;;;;;5096111;28;20472;-62
2021/03/01 02:51:36;;;;;;;27.50;17.83;;;7.80;57.90;;;;;;5082732;28;20536;-62
2021/03/01 02:54:03;;;;;;;27.88;18.48;;;7.70;57.80;;;;;;5107936;27;20107;-63
2021/03/01 02:56:30;;;;;;;26.60;17.52;;;7.70;57.70;;;;;;5082625;28;20557;-70
2021/03/01 02:58:57;;;;;;;24.75;16.85;;;7.70;57.70;;;;;;5111351;28;20047;-62
2021/03/01 03:01:23;;;;;;;25.75;17.30;;;7.70;57.70;;;;;;5087308;28;20040;-62
2021/03/01 03:03:51;;;;;;;29.17;16.90;;;7.70;57.70;;;;;;5076083;28;20122;-62
2021/03/01 03:06:19;;;;;;;28.23;18.30;;;7.70;57.60;;;;;;5096707;28;20024;-62
2021/03/01 03:08:46;;;;;;;27.02;18.65;;;7.70;57.70;;;;;;5104667;28;20027;-66
2021/03/01 03:11:16;;;;;;;28.42;18.77;;;7.70;57.80;;;;;;5100566;28;20027;-61
2021/03/01 03:13:45;;;;;;;25.33;17.58;;;7.70;57.70;;;;;;5099692;28;20076;-67
2021/03/01 03:16:12;;;;;;;29.10;18.23;;;7.60;57.60;;;;;;5099738;28;20027;-61
2021/03/01 03:18:40;;;;;;;25.40;18.40;;;7.60;58.20;;;;;;5102682;28;20516;-62
2021/03/01 03:21:06;;;;;;;28.52;18.33;;;7.60;57.70;;;;;;5103361;28;20031;-62
2021/03/01 03:23:53;;;;;;;27.20;18.05;;;7.60;57.70;;;;;;5099179;28;20425;-62
2021/03/01 03:26:19;;;;;;;28.48;18.70;;;7.60;57.80;;;;;;5101403;28;20051;-62
2021/03/01 03:28:45;;;;;;;27.60;18.20;;;7.50;57.90;;;;;;5101611;28;20023;-62
2021/03/01 03:31:12;;;;;;;25.63;16.85;;;7.50;57.80;;;;;;5085598;28;20033;-61
2021/03/01 03:33:39;;;;;;;25.73;17.23;;;7.60;57.80;;;;;;5093842;28;20069;-65
2021/03/01 03:36:06;;;;;;;24.33;17.27;;;7.60;57.80;;;;;;5106812;28;20103;-63
2021/03/01 03:38:36;;;;;;;26.15;18.33;;;7.60;57.60;;;;;;5097797;27;20105;-61
2021/03/01 03:41:04;;;;;;;26.42;18.15;;;7.60;57.70;;;;;;5099739;28;20036;-65
2021/03/01 03:43:32;;;;;;;25.63;17.48;;;7.60;57.80;;;;;;5080219;28;20119;-66
2021/03/01 03:46:00;;;;;;;28.15;18.20;;;7.50;57.60;;;;;;5098408;28;20138;-62
2021/03/01 03:48:27;;;;;;;26.63;18.20;;;7.50;57.70;;;;;;5095920;28;20038;-69
2021/03/01 03:50:59;;;;;;;25.52;16.83;;;7.60;57.70;;;;;;5104515;28;20481;-62
2021/03/01 03:53:27;;;;;;;27.30;17.58;;;7.50;57.80;;;;;;5101566;28;20035;-61
2021/03/01 03:55:59;;;;;;;27.88;18.35;;;7.50;58.00;;;;;;5087519;27;20036;-61
2021/03/01 03:58:32;;;;;;;26.02;18.27;;;7.40;58.00;;;;;;5076918;28;20046;-63
2021/03/01 04:01:00;;;;;;;27.73;17.67;;;7.40;58.20;;;;;;5100874;28;20070;-62
2021/03/01 04:03:27;;;;;;;29.50;18.15;;;7.40;58.10;;;;;;5083763;28;20033;-62
2021/03/01 04:05:55;;;;;;;29.05;17.95;;;7.50;58.10;;;;;;5091263;28;20036;-62
2021/03/01 04:08:23;;;;;;;27.98;17.70;;;7.40;58.20;;;;;;5100442;28;20042;-63
2021/03/01 04:10:52;;;;;;;26.98;17.40;;;7.40;58.50;;;;;;5074530;28;20032;-62
2021/03/01 04:13:19;;;;;;;25.33;17.98;;;7.30;58.60;;;;;;5101920;28;20032;-62
2021/03/01 04:15:47;;;;;;;30.92;18.33;;;7.30;58.70;;;;;;5085826;28;20533;-62
2021/03/01 04:18:18;;;;;;;26.70;18.48;;;7.20;58.80;;;;;;5099737;28;20051;-62
2021/03/01 04:20:46;;;;;;;29.63;18.20;;;7.30;58.60;;;;;;5101349;27;20500;-63
2021/03/01 04:23:12;;;;;;;29.92;18.63;;;7.30;58.50;;;;;;5104508;28;20039;-63
2021/03/01 04:25:39;;;;;;;30.48;18.63;;;7.30;58.60;;;;;;5103163;28;20089;-62
2021/03/01 04:28:05;;;;;;;30.40;18.77;;;7.20;58.90;;;;;;5099064;28;20101;-62
2021/03/01 04:30:32;;;;;;;25.88;18.13;;;7.20;59.20;;;;;;5100734;28;20031;-62
2021/03/01 04:32:58;;;;;;;28.73;19.60;;;7.20;59.10;;;;;;5100464;28;20630;-62
2021/03/01 04:35:25;;;;;;;33.35;19.88;;;7.20;59.00;;;;;;5094127;28;20039;-62
2021/03/01 04:37:51;;;;;;;31.70;19.17;;;7.20;59.10;;;;;;5080960;28;20039;-62
2021/03/01 04:40:17;;;;;;;28.63;18.95;;;7.20;59.10;;;;;;5098311;28;20389;-61
2021/03/01 04:42:46;;;;;;;28.63;18.30;;;7.20;59.10;;;;;;5099953;28;20062;-61
2021/03/01 04:45:17;;;;;;;28.27;18.58;;;7.20;58.90;;;;;;5078192;28;20055;-62
2021/03/01 04:47:44;;;;;;;27.45;19.02;;;7.30;58.90;;;;;;5080982;28;20027;-62
2021/03/01 04:50:13;;;;;;;31.67;19.73;;;7.30;58.90;;;;;;5097577;28;20027;-61
2021/03/01 04:52:40;;;;;;;26.42;18.33;;;7.30;59.10;;;;;;5080256;28;20055;-72
2021/03/01 04:55:07;;;;;;;31.08;19.30;;;7.20;59.20;;;;;;5099278;28;20028;-62
2021/03/01 04:57:33;;;;;;;28.52;19.20;;;7.20;59.00;;;;;;5101091;28;20023;-62
2021/03/01 05:00:00;;;;;;;30.15;19.15;;;7.20;58.80;;;;;;5094443;28;20292;-62
2021/03/01 05:02:29;;;;;;;31.52;21.30;;;7.20;58.80;;;;;;5106011;27;20413;-62
2021/03/01 05:04:56;;;;;;;28.80;19.45;;;7.30;59.00;;;;;;5102352;28;20027;-62
2021/03/01 05:07:23;;;;;;;34.65;19.73;;;7.30;58.80;;;;;;5093707;28;20036;-61
2021/03/01 05:09:50;;;;;;;29.65;18.95;;;7.40;58.80;;;;;;5096981;28;20026;-61
2021/03/01 05:12:15;;;;;;;30.05;20.45;;;7.30;58.90;;;;;;5102719;28;20023;-61
2021/03/01 05:14:41;;;;;;;29.00;19.80;;;7.30;58.80;;;;;;5078809;28;20036;-62
2021/03/01 05:17:07;;;;;;;30.73;20.05;;;7.30;59.10;;;;;;5100502;28;20027;-63
2021/03/01 05:19:32;;;;;;;33.17;19.98;;;7.30;59.20;;;;;;5101048;28;20032;-61
2021/03/01 05:21:58;;;;;;;29.50;19.15;;;7.30;59.50;;;;;;5100669;28;20028;-63
2021/03/01 05:24:24;;;;;;;32.95;20.52;;;7.30;59.40;;;;;;5096348;28;20074;-64
2021/03/01 05:26:50;;;;;;;31.23;21.15;;;7.30;59.30;;;;;;5096669;28;20093;-64
2021/03/01 05:29:16;;;;;;;32.03;20.23;;;7.30;59.20;;;;;;5083972;28;20032;-63
2021/03/01 05:31:43;;;;;;;35.92;21.30;;;7.30;59.60;;;;;;5079070;28;20035;-63
2021/03/01 05:34:08;;;;;;;33.08;20.02;;;7.20;59.90;;;;;;5090921;28;20024;-63
2021/03/01 05:36:34;;;;;;;30.17;20.15;;;7.10;60.20;;;;;;5103899;28;20027;-61
2021/03/01 05:39:18;;;;;;;32.67;21.23;;;7.10;60.20;;;;;;5098322;28;20064;-62
2021/03/01 05:41:46;;;;;;;29.52;19.35;;;7.10;60.20;;;;;;5096166;28;20036;-65
2021/03/01 05:44:13;;;;;;;31.20;19.73;;;7.10;60.30;;;;;;5098601;28;20474;-62
2021/03/01 05:46:42;;;;;;;28.60;19.40;;;7.00;60.40;;;;;;5095713;28;20035;-62
2021/03/01 05:49:08;;;;;;;28.50;19.20;;;7.00;60.40;;;;;;5101629;28;20474;-61
2021/03/01 05:51:37;;;;;;;31.90;19.98;;;7.10;60.10;;;;;;5101036;28;20420;-62
2021/03/01 05:54:05;;;;;;;26.98;18.35;;;7.20;59.70;;;;;;5107624;28;20034;-62
2021/03/01 05:56:32;;;;;;;31.83;18.90;;;7.30;59.60;;;;;;5098103;28;20062;-63
2021/03/01 05:58:59;;;;;;;36.33;20.73;;;7.40;59.30;;;;;;5098390;28;20025;-68
2021/03/01 06:01:26;;;;;;;29.95;19.60;;;7.40;59.10;;;;;;5084670;28;20032;-62
2021/03/01 06:03:52;;;;;;;31.63;20.30;;;7.40;59.00;;;;;;5073538;28;20034;-62
2021/03/01 06:06:18;;;;;;;31.20;20.30;;;7.50;58.80;;;;;;5098325;28;20508;-63
2021/03/01 06:08:45;;;;;;;34.45;20.38;;;7.50;58.70;;;;;;5108336;28;20410;-63
2021/03/01 06:11:11;;;;;;;32.60;20.05;;;7.50;58.80;;;;;;5075881;28;20481;-63
2021/03/01 06:13:37;;;;;;;34.28;21.13;;;7.50;59.00;;;;;;5100119;28;20027;-63
2021/03/01 06:16:05;;;;;;;35.13;21.63;;;7.60;58.80;;;;;;5106575;28;20557;-65
2021/03/01 06:18:32;;;;;;;36.25;20.42;;;7.60;58.60;;;;;;5108836;28;20051;-64
2021/03/01 06:21:17;;;;;;;32.10;19.75;;;7.60;58.70;;;;;;5084197;28;20027;-62
2021/03/01 06:24:02;;;;;;;33.45;20.50;;;7.70;58.80;;;;;;5097288;28;20083;-63
2021/03/01 06:26:30;;;;;;;33.13;20.10;;;7.70;58.80;;;;;;5106876;28;20532;-62
2021/03/01 06:29:08;;;;;;;31.70;21.02;;;7.80;58.60;;;;;;5089352;28;20055;-63
2021/03/01 06:31:42;;;;;;;37.35;22.17;;;7.80;58.50;;;;;;5107013;28;20034;-62
2021/03/01 06:34:27;;;;;;;38.88;22.05;;;7.90;58.40;;;;;;5105613;28;20472;-63
2021/03/01 06:36:54;;;;;;;32.80;21.40;;;7.90;58.40;;;;;;5101277;28;20027;-62
2021/03/01 06:39:34;;;;;;;34.28;21.95;;;8.00;58.30;;;;;;5103706;28;20056;-63
2021/03/01 06:42:21;;;;;;;40.03;21.80;;;8.10;58.10;;;;;;5079346;28;20075;-66
2021/03/01 06:45:00;;;;;;;32.33;21.75;;;8.40;57.60;;;;;;5075776;28;20032;-63
2021/03/01 06:47:55;;;;;;;38.30;23.33;;;8.60;57.10;;;;;;5105588;28;20035;-63
2021/03/01 06:50:36;;;;;;;39.42;22.92;;;8.70;56.70;;;;;;5103677;28;20244;-63
2021/03/01 06:53:15;;;;;;;40.08;23.13;;;8.90;56.20;;;;;;5103161;27;20035;-69
2021/03/01 06:55:57;;;;;;;92.53;23.92;;;9.10;55.80;;;;;;5101577;28;20035;-63
2021/03/01 06:58:24;;;;;;;66.50;22.33;;;9.30;55.20;;;;;;5111700;28;20077;-63
2021/03/01 07:01:09;;;;;;;36.70;21.90;;;9.50;54.90;;;;;;5105822;28;20027;-61
2021/03/01 07:03:35;;;;;;;34.03;22.95;;;9.60;54.00;;;;;;5111305;27;20038;-64
2021/03/01 07:06:03;;;;;;;33.85;22.15;;;9.60;53.80;;;;;;5092422;28;20028;-62
2021/03/01 07:08:49;;;;;;;45.53;23.60;;;9.50;53.90;;;;;;5112956;27;20028;-62
2021/03/01 07:11:32;;;;;;;38.40;23.67;;;9.50;54.20;;;;;;5112612;28;20035;-63
2021/03/01 07:14:09;;;;;;;36.00;24.02;;;9.50;54.30;;;;;;5101685;28;20028;-62
2021/03/01 07:16:51;;;;;;;31.63;21.92;;;9.80;54.80;;;;;;5111597;27;20067;-63
2021/03/01 07:19:19;;;;;;;32.60;22.48;;;10.60;52.40;;;;;;5101941;28;20028;-63
2021/03/01 07:21:50;;;;;;;36.75;22.80;;;10.90;51.80;;;;;;5109559;28;20028;-63
2021/03/01 07:24:21;;;;;;;36.20;23.40;;;11.30;50.50;;;;;;5093716;28;20039;-65
2021/03/01 07:26:48;;;;;;;36.05;27.45;;;11.70;49.60;;;;;;5104276;28;20134;-62
2021/03/01 07:29:16;;;;;;;37.05;26.63;;;13.60;48.20;;;;;;5076931;28;20032;-63
2021/03/01 07:31:48;;;;;;;34.88;27.73;;;16.70;42.80;;;;;;5096752;28;20039;-68
2021/03/01 07:34:17;;;;;;;36.95;26.38;;;19.00;37.20;;;;;;5113035;27;20037;-62
2021/03/01 07:36:43;;;;;;;34.17;27.27;;;20.80;33.50;;;;;;5112306;28;20049;-62
2021/03/01 07:39:11;;;;;;;31.65;24.00;;;21.50;32.00;;;;;;5083130;28;20059;-62
2021/03/01 07:41:39;;;;;;;27.35;21.25;;;22.00;30.70;;;;;;5101956;28;20822;-62
2021/03/01 07:44:08;;;;;;;34.08;24.90;;;21.50;30.00;;;;;;5106425;28;20028;-61
2021/03/01 07:46:39;;;;;;;29.00;21.20;;;20.10;31.70;;;;;;5084589;28;20122;-63
2021/03/01 07:49:05;;;;;;;28.85;21.80;;;19.50;32.30;;;;;;5077625;28;20028;-62
2021/03/01 07:51:47;;;;;;;32.10;27.05;;;18.70;34.00;;;;;;5111932;28;20042;-63
2021/03/01 07:54:15;;;;;;;31.20;25.95;;;18.30;35.10;;;;;;5091391;28;20118;-62
2021/03/01 07:56:42;;;;;;;35.30;27.50;;;19.90;32.90;;;;;;5087040;28;20146;-62
2021/03/01 07:59:10;;;;;;;31.10;22.55;;;20.60;31.90;;;;;;5101699;28;20076;-61
2021/03/01 08:01:37;;;;;;;29.73;21.00;;;20.10;31.50;;;;;;5109250;28;20035;-64
2021/03/01 08:04:03;;;;;;;30.90;25.85;;;20.10;31.60;;;;;;5093592;28;20561;-69
2021/03/01 08:06:55;;;;;;;34.35;28.02;;;20.00;32.00;;;;;;5104901;28;20034;-69
2021/03/01 08:09:43;;;;;;;30.45;26.60;;;21.10;30.50;;;;;;5086035;28;20093;-70
2021/03/01 08:12:11;;;;;;;30.20;22.02;;;22.00;29.00;;;;;;5102075;28;20040;-68
2021/03/01 08:14:49;;;;;;;32.03;25.52;;;22.80;29.00;;;;;;5101633;28;20088;-67
2021/03/01 08:17:30;;;;;;;28.25;24.70;;;22.60;28.50;;;;;;5105023;28;20026;-69
2021/03/01 08:19:57;;;;;;;30.88;23.15;;;23.60;27.90;;;;;;5104556;28;20046;-67
2021/03/01 08:22:25;;;;;;;27.33;21.08;;;24.20;27.30;;;;;;5095105;28;20126;-67
2021/03/01 08:24:52;;;;;;;32.08;24.08;;;23.70;27.00;;;;;;5089471;28;20469;-66
2021/03/01 08:27:27;;;;;;;30.13;26.90;;;22.10;28.60;;;;;;5102950;28;20044;-67
2021/03/01 08:30:32;;;;;;;31.63;28.33;;;21.80;28.80;;;;;;5103604;28;20487;-69
2021/03/01 08:33:09;;;;;;;36.03;26.95;;;22.00;28.60;;;;;;5106854;28;20055;-67
2021/03/01 08:35:44;;;;;;;31.23;24.48;;;22.10;28.50;;;;;;5110193;28;20020;-67
2021/03/01 08:38:11;;;;;;;32.80;22.83;;;21.50;28.70;;;;;;5096890;28;20028;-60
2021/03/01 08:40:54;;;;;;;27.40;21.77;;;20.20;30.00;;;;;;5110217;28;20031;-59
2021/03/01 08:43:34;;;;;;;28.42;21.55;;;18.80;31.90;;;;;;5087324;28;20039;-55
2021/03/01 08:46:01;;;;;;;32.78;22.80;;;17.60;34.10;;;;;;5099832;27;20053;-59
2021/03/01 08:48:28;;;;;;;31.75;23.63;;;16.60;35.60;;;;;;5115094;27;20448;-65
2021/03/01 08:50:55;;;;;;;32.70;24.15;;;15.50;37.50;;;;;;5098034;27;20027;-60
2021/03/01 08:53:27;;;;;;;31.63;23.55;;;14.50;39.60;;;;;;5118279;27;20023;-63
2021/03/01 08:55:55;;;;;;;37.38;23.98;;;13.80;41.60;;;;;;5097514;27;20084;-62
2021/03/01 08:58:23;;;;;;;33.28;23.77;;;13.20;43.10;;;;;;5117405;27;20032;-56
2021/03/01 09:00:56;;;;;;;35.90;24.48;;;12.80;44.70;;;;;;5116285;27;20023;-61
2021/03/01 09:03:31;;;;;;;34.33;24.30;;;12.20;46.20;;;;;;5090200;27;20039;-61
2021/03/01 09:06:18;;;;;;;35.08;24.45;;;11.70;47.80;;;;;;5075100;27;20378;-65
2021/03/01 09:08:46;;;;;;;32.10;23.15;;;11.50;48.60;;;;;;5088229;27;20164;-62
2021/03/01 09:11:25;;;;;;;31.65;21.92;;;11.50;48.60;;;;;;5104549;27;20031;-61
2021/03/01 09:13:54;;;;;;;34.42;23.52;;;11.50;48.90;;;;;;5109111;27;20028;-63
2021/03/01 09:16:25;;;;;;;40.75;23.25;;;11.40;49.00;;;;;;5100791;28;20031;-65
2021/03/01 09:18:58;;;;;;;31.30;22.25;;;11.40;49.30;;;;;;5080696;28;20109;-57
2021/03/01 09:21:25;;;;;;;36.15;22.60;;;11.40;49.20;;;;;;5099269;28;20611;-62
2021/03/01 09:23:55;;;;;;;36.25;21.85;;;11.40;49.40;;;;;;5090635;27;20034;-61
2021/03/01 09:26:34;;;;;;;34.70;22.88;;;11.30;49.60;;;;;;5102910;27;20050;-61
2021/03/01 09:29:06;;;;;;;37.35;23.33;;;11.10;50.40;;;;;;5110873;27;20114;-66
2021/03/01 09:31:50;;;;;;;35.92;23.98;;;11.00;50.50;;;;;;5083321;27;20243;-61
2021/03/01 09:34:18;;;;;;;37.20;23.27;;;10.90;51.00;;;;;;5096214;27;20478;-60
2021/03/01 09:36:49;;;;;;;33.10;23.17;;;10.70;51.50;;;;;;5098238;28;20046;-62
2021/03/01 09:39:22;;;;;;;33.53;23.52;;;10.60;52.10;;;;;;5072704;27;20118;-67
2021/03/01 09:41:50;;;;;;;37.03;25.33;;;10.60;52.20;;;;;;5098467;27;20032;-67
2021/03/01 09:44:37;;;;;;;37.60;25.63;;;10.70;52.30;;;;;;5108979;27;20043;-62
2021/03/01 09:47:06;;;;;;;43.53;24.30;;;10.50;52.90;;;;;;5100808;27;20057;-64
2021/03/01 09:49:35;;;;;;;37.10;24.55;;;10.60;52.70;;;;;;5112512;27;20030;-63
2021/03/01 09:52:01;;;;;;;38.55;24.67;;;10.80;52.60;;;;;;5093740;27;20508;-64
2021/03/01 09:54:29;;;;;;;36.67;25.17;;;10.90;52.40;;;;;;5105718;27;20055;-64
2021/03/01 09:57:03;;;;;;;34.65;25.58;;;11.00;52.40;;;;;;5088247;28;20024;-70
2021/03/01 09:59:35;;;;;;;;;;;10.80;52.70;;;;;;5092376;28;20019;-60
2021/03/01 10:02:13;;;;;;;38.30;24.40;;;10.80;53.00;;;;;;5103516;28;19923;-66
2021/03/01 10:04:41;;;;;;;35.35;23.73;;;10.70;52.90;;;;;;5077769;28;20034;-64
2021/03/01 10:07:23;;;;;;;37.88;25.00;;;10.60;53.20;;;;;;5100192;28;20749;-68
2021/03/01 10:09:50;;;;;;;34.22;25.52;;;10.80;53.10;;;;;;5061636;28;20184;-68
2021/03/01 10:12:17;;;;;;;39.85;25.15;;;11.10;52.50;;;;;;5078535;28;20047;-67
2021/03/01 10:14:44;;;;;;;33.50;23.67;;;11.20;52.30;;;;;;5080803;28;20131;-66
2021/03/01 10:17:14;;;;;;;35.50;24.45;;;11.10;52.40;;;;;;5075593;28;20040;-66
2021/03/01 10:19:40;;;;;;;38.70;24.15;;;11.10;52.40;;;;;;5097304;28;20028;-65
2021/03/01 10:22:06;;;;;;;34.95;24.38;;;11.30;52.30;;;;;;5092082;28;20035;-67
2021/03/01 10:24:44;;;;;;;33.85;24.75;;;11.50;51.80;;;;;;5071653;28;20882;-63
2021/03/01 10:27:10;;;;;;;39.10;24.77;;;11.70;51.20;;;;;;5082400;28;20097;-64
2021/03/01 10:29:39;;;;;;;34.78;24.40;;;11.90;51.00;;;;;;5071238;28;20061;-64
2021/03/01 10:32:20;;;;;;;37.90;24.95;;;11.60;51.30;;;;;;5101319;28;20086;-65
2021/03/01 10:34:46;;;;;;;36.20;24.63;;;11.70;51.50;;;;;;5074771;28;20035;-68
2021/03/01 10:37:13;;;;;;;31.27;22.98;;;12.00;50.90;;;;;;5104087;28;20140;-66
2021/03/01 10:39:44;;;;;;;37.03;23.35;;;12.10;50.50;;;;;;5095341;28;20183;-69
2021/03/01 10:42:12;;;;;;;35.42;24.38;;;12.10;50.60;;;;;;5095406;28;20039;-64
2021/03/01 10:44:46;;;;;;;33.15;24.55;;;11.80;51.20;;;;;;5095076;28;20027;-64
2021/03/01 10:47:21;;;;;;;33.50;24.15;;;11.70;51.60;;;;;;5082969;28;20023;-66
2021/03/01 10:49:49;;;;;;;36.50;24.60;;;11.60;52.40;;;;;;5090877;28;20030;-62
2021/03/01 10:52:16;;;;;;;34.33;23.60;;;11.60;51.70;;;;;;5086615;28;20036;-65
2021/03/01 10:54:42;;;;;;;34.30;23.48;;;11.70;51.80;;;;;;5075167;28;20030;-67
2021/03/01 10:57:08;;;;;;;35.50;25.48;;;11.90;51.50;;;;;;5086989;28;20020;-66
2021/03/01 10:59:34;;;;;;;34.53;24.35;;;11.90;51.10;;;;;;5113815;28;20054;-67
2021/03/01 11:02:01;;;;;;;33.50;24.15;;;12.00;51.10;;;;;;5100147;28;20045;-66
2021/03/01 11:04:27;;;;;;;40.40;25.27;;;12.00;50.80;;;;;;5089102;27;20031;-66
2021/03/01 11:06:53;;;;;;;35.60;24.30;;;12.10;50.80;;;;;;5109373;27;20032;-62
2021/03/01 11:09:20;;;;;;;43.67;27.73;;;12.20;50.50;;;;;;5089091;27;20234;-63
2021/03/01 11:11:47;;;;;;;81.60;53.78;;;12.20;50.30;;;;;;5103801;27;20058;-64
2021/03/01 11:14:14;;;;;;;32.10;22.73;;;12.10;50.60;;;;;;5102645;27;20374;-64
2021/03/01 11:16:40;;;;;;;39.25;25.85;;;12.10;50.70;;;;;;5105926;27;20026;-63
2021/03/01 11:19:08;;;;;;;33.10;23.63;;;12.10;50.60;;;;;;5092841;28;20020;-65
2021/03/01 11:21:34;;;;;;;35.17;23.83;;;12.20;50.70;;;;;;5095869;27;20031;-67
2021/03/01 11:24:00;;;;;;;33.33;23.50;;;12.30;50.10;;;;;;5105884;27;20362;-67
2021/03/01 11:26:27;;;;;;;32.63;22.38;;;12.30;50.20;;;;;;5088142;28;20115;-65
2021/03/01 11:28:54;;;;;;;32.95;23.45;;;12.40;50.00;;;;;;5085523;28;20032;-66
2021/03/01 11:31:20;;;;;;;32.70;22.67;;;12.40;49.90;;;;;;5102154;28;20052;-66
2021/03/01 11:33:46;;;;;;;33.33;23.00;;;12.50;49.40;;;;;;5086041;28;20026;-68
2021/03/01 11:36:13;;;;;;;33.05;21.98;;;12.60;49.50;;;;;;5094554;27;20039;-71
2021/03/01 11:38:39;;;;;;;32.05;21.35;;;12.70;49.20;;;;;;5091787;28;20027;-66
2021/03/01 11:41:05;;;;;;;30.52;21.88;;;12.60;49.00;;;;;;5098167;27;20453;-69
2021/03/01 11:43:32;;;;;;;32.70;21.73;;;12.50;49.40;;;;;;5108141;28;20032;-67
2021/03/01 11:45:58;;;;;;;31.83;22.45;;;12.60;49.70;;;;;;5094794;28;20557;-70
2021/03/01 11:48:24;;;;;;;30.73;22.63;;;12.70;49.30;;;;;;5103254;28;20103;-69
2021/03/01 11:50:51;;;;;;;29.38;21.77;;;12.70;49.10;;;;;;5099476;28;20027;-70
2021/03/01 11:53:17;;;;;;;34.22;23.08;;;12.40;49.30;;;;;;5091767;27;20143;-69
2021/03/01 11:55:44;;;;;;;28.58;21.23;;;12.30;49.90;;;;;;5099272;27;20031;-74
2021/03/01 11:58:29;;;;;;;30.20;21.33;;;12.50;49.80;;;;;;5101942;27;20121;-68
2021/03/01 12:00:55;;;;;;;37.92;22.67;;;12.50;49.50;;;;;;5096342;28;20300;-68
2021/03/01 12:03:21;;;;;;;32.38;21.75;;;12.70;49.00;;;;;;5063454;27;20047;-61
2021/03/01 12:05:47;;;;;;;34.15;22.42;;;12.80;48.90;;;;;;5100915;27;20420;-63
2021/03/01 12:08:12;;;;;;;33.25;22.83;;;12.60;49.60;;;;;;5088776;28;20041;-64
2021/03/01 12:10:38;;;;;;;34.22;21.45;;;12.60;49.70;;;;;;5088614;28;20111;-70
2021/03/01 12:13:05;;;;;;;31.67;22.13;;;12.50;49.70;;;;;;5094837;27;20084;-63
2021/03/01 12:15:32;;;;;;;29.95;20.25;;;12.50;49.80;;;;;;5099060;27;20024;-66
2021/03/01 12:17:58;;;;;;;33.03;22.38;;;12.60;49.70;;;;;;5097342;27;20032;-68
2021/03/01 12:20:24;;;;;;;38.72;22.67;;;12.50;49.60;;;;;;5093194;27;20020;-69
2021/03/01 12:22:50;;;;;;;37.10;23.33;;;12.60;49.70;;;;;;5092607;27;20020;-69
2021/03/01 12:25:16;;;;;;;33.88;23.83;;;12.70;49.70;;;;;;5071753;28;20040;-65
2021/03/01 12:27:43;;;;;;;40.55;25.98;;;12.80;49.30;;;;;;5086898;28;20044;-65
2021/03/01 12:30:10;;;;;;;35.55;23.92;;;12.90;49.20;;;;;;5074380;27;20147;-63
2021/03/01 12:32:35;;;;;;;31.90;22.75;;;12.60;49.40;;;;;;5093461;27;20380;-64
2021/03/01 12:35:02;;;;;;;32.33;22.25;;;12.70;49.80;;;;;;5076997;28;20031;-67
2021/03/01 12:37:28;;;;;;;35.35;22.90;;;12.90;49.50;;;;;;5070096;28;20070;-64
2021/03/01 12:39:55;;;;;;;33.20;24.20;;;13.10;49.10;;;;;;5081161;28;20390;-66
2021/03/01 12:42:21;;;;;;;33.78;23.50;;;13.10;48.80;;;;;;5092453;27;21015;-64
2021/03/01 12:45:06;;;;;;;32.95;22.73;;;12.90;49.00;;;;;;5079002;28;20130;-64